sensor_id;sensor_type;location;lat;lon;timestamp;pressure;altitude;pressure_sealevel;temperature;humidity
30421;BME280;17218;54.070;10.012;2023-07-02T00:01:16;99958.13;;;15.86;100.00
30421;BME280;17218;54.070;10.012;2023-07-02T00:03:42;99959.81;;;15.88;100.00
30421;BME280;17218;54.070;10.012;2023-07-02T00:06:10;99961.41;;;15.92;100.00
30421;BME280;17218;54.070;10.012;2023-07-02T00:08:36;99960.69;;;15.88;100.00
30421;BME280;17218;54.070;10.012;2023-07-02T00:11:03;99966.22;;;15.80;100.00
30421;BME280;17218;54.070;10.012;2023-07-02T00:13:29;99957.44;;;15.81;100.00
30421;BME280;17218;54.070;10.012;2023-07-02T00:15:56;99954.00;;;15.81;100.00
30421;BME280;17218;54.070;10.012;2023-07-02T00:18:23;99952.84;;;15.88;100.00
30421;BME280;17218;54.070;10.012;2023-07-02T00:20:54;99954.66;;;15.86;100.00
30421;BME280;17218;54.070;10.012;2023-07-02T00:23:21;99956.97;;;15.94;100.00
30421;BME280;17218;54.070;10.012;2023-07-02T00:25:48;99952.56;;;15.94;100.00
30421;BME280;17218;54.070;10.012;2023-07-02T00:28:14;99949.66;;;16.02;100.00
30421;BME280;17218;54.070;10.012;2023-07-02T00:30:43;99951.16;;;16.08;100.00
30421;BME280;17218;54.070;10.012;2023-07-02T00:33:09;99946.19;;;16.02;100.00
30421;BME280;17218;54.070;10.012;2023-07-02T00:35:35;99948.91;;;15.98;100.00
30421;BME280;17218;54.070;10.012;2023-07-02T00:38:03;99947.97;;;16.00;100.00
30421;BME280;17218;54.070;10.012;2023-07-02T00:40:30;99956.03;;;15.95;100.00
30421;BME280;17218;54.070;10.012;2023-07-02T00:42:57;99951.13;;;15.87;100.00
30421;BME280;17218;54.070;10.012;2023-07-02T00:45:23;99949.22;;;15.91;100.00
30421;BME280;17218;54.070;10.012;2023-07-02T00:47:53;99953.50;;;15.93;100.00
30421;BME280;17218;54.070;10.012;2023-07-02T00:50:20;99956.63;;;16.02;100.00
30421;BME280;17218;54.070;10.012;2023-07-02T00:52:47;99948.47;;;16.09;100.00
30421;BME280;17218;54.070;10.012;2023-07-02T00:55:14;99941.44;;;16.12;100.00
30421;BME280;17218;54.070;10.012;2023-07-02T00:57:42;99952.28;;;16.02;100.00
30421;BME280;17218;54.070;10.012;2023-07-02T01:00:12;99958.34;;;16.03;100.00
30421;BME280;17218;54.070;10.012;2023-07-02T01:02:39;99964.44;;;16.03;100.00
30421;BME280;17218;54.070;10.012;2023-07-02T01:05:09;99954.00;;;16.03;100.00
30421;BME280;17218;54.070;10.012;2023-07-02T01:07:35;99953.13;;;16.03;100.00
30421;BME280;17218;54.070;10.012;2023-07-02T01:10:02;99945.38;;;16.01;100.00
30421;BME280;17218;54.070;10.012;2023-07-02T01:12:29;99949.84;;;15.97;100.00
30421;BME280;17218;54.070;10.012;2023-07-02T01:15:00;99951.59;;;15.97;100.00
30421;BME280;17218;54.070;10.012;2023-07-02T01:17:29;99955.16;;;15.94;100.00
30421;BME280;17218;54.070;10.012;2023-07-02T01:20:05;99946.44;;;15.95;100.00
30421;BME280;17218;54.070;10.012;2023-07-02T01:22:33;99946.50;;;15.94;100.00
30421;BME280;17218;54.070;10.012;2023-07-02T01:25:00;99942.31;;;15.90;100.00
30421;BME280;17218;54.070;10.012;2023-07-02T01:27:28;99939.97;;;15.83;100.00
30421;BME280;17218;54.070;10.012;2023-07-02T01:29:55;99935.66;;;15.82;100.00
30421;BME280;17218;54.070;10.012;2023-07-02T01:32:22;99943.50;;;15.82;100.00
30421;BME280;17218;54.070;10.012;2023-07-02T01:34:49;99946.91;;;15.84;100.00
30421;BME280;17218;54.070;10.012;2023-07-02T01:37:19;99942.72;;;15.80;100.00
30421;BME280;17218;54.070;10.012;2023-07-02T01:39:46;99949.50;;;15.84;100.00
30421;BME280;17218;54.070;10.012;2023-07-02T01:42:14;99937.34;;;15.83;100.00
30421;BME280;17218;54.070;10.012;2023-07-02T01:44:42;99940.81;;;15.84;100.00
30421;BME280;17218;54.070;10.012;2023-07-02T01:47:09;99933.84;;;15.84;100.00
30421;BME280;17218;54.070;10.012;2023-07-02T01:49:36;99945.13;;;15.85;100.00
30421;BME280;17218;54.070;10.012;2023-07-02T01:52:03;99931.94;;;15.88;100.00
30421;BME280;17218;54.070;10.012;2023-07-02T01:54:32;99926.00;;;15.84;100.00
30421;BME280;17218;54.070;10.012;2023-07-02T01:56:59;99936.56;;;15.81;100.00
30421;BME280;17218;54.070;10.012;2023-07-02T01:59:26;99929.34;;;15.88;100.00
30421;BME280;17218;54.070;10.012;2023-07-02T02:01:52;99937.81;;;15.93;100.00
30421;BME280;17218;54.070;10.012;2023-07-02T02:04:19;99945.59;;;15.95;100.00
30421;BME280;17218;54.070;10.012;2023-07-02T02:06:45;99935.00;;;15.98;100.00
30421;BME280;17218;54.070;10.012;2023-07-02T02:09:12;99935.13;;;15.95;100.00
30421;BME280;17218;54.070;10.012;2023-07-02T02:11:42;99949.94;;;15.94;100.00
30421;BME280;17218;54.070;10.012;2023-07-02T02:14:09;99949.38;;;15.88;100.00
30421;BME280;17218;54.070;10.012;2023-07-02T02:16:35;99940.56;;;15.90;100.00
30421;BME280;17218;54.070;10.012;2023-07-02T02:19:02;99930.06;;;15.92;100.00
30421;BME280;17218;54.070;10.012;2023-07-02T02:21:29;99939.44;;;15.96;100.00
30421;BME280;17218;54.070;10.012;2023-07-02T02:23:55;99944.06;;;15.89;100.00
30421;BME280;17218;54.070;10.012;2023-07-02T02:26:22;99935.00;;;15.77;100.00
30421;BME280;17218;54.070;10.012;2023-07-02T02:28:52;99935.84;;;15.78;100.00
30421;BME280;17218;54.070;10.012;2023-07-02T02:31:18;99945.50;;;15.76;100.00
30421;BME280;17218;54.070;10.012;2023-07-02T02:33:45;99939.31;;;15.78;100.00
30421;BME280;17218;54.070;10.012;2023-07-02T02:36:11;99944.47;;;15.80;100.00
30421;BME280;17218;54.070;10.012;2023-07-02T02:38:38;99940.75;;;15.85;100.00
30421;BME280;17218;54.070;10.012;2023-07-02T02:41:04;99939.88;;;15.85;100.00
30421;BME280;17218;54.070;10.012;2023-07-02T02:43:33;99945.25;;;15.82;100.00
30421;BME280;17218;54.070;10.012;2023-07-02T02:46:01;99936.84;;;15.75;100.00
30421;BME280;17218;54.070;10.012;2023-07-02T02:48:27;99940.25;;;15.77;100.00
30421;BME280;17218;54.070;10.012;2023-07-02T02:50:54;99935.91;;;15.76;100.00
30421;BME280;17218;54.070;10.012;2023-07-02T02:53:20;99938.44;;;15.78;100.00
30421;BME280;17218;54.070;10.012;2023-07-02T02:55:47;99937.56;;;15.79;100.00
30421;BME280;17218;54.070;10.012;2023-07-02T02:58:13;99945.72;;;15.71;100.00
30421;BME280;17218;54.070;10.012;2023-07-02T03:00:40;99948.38;;;15.69;100.00
30421;BME280;17218;54.070;10.012;2023-07-02T03:03:12;99947.34;;;15.73;100.00
30421;BME280;17218;54.070;10.012;2023-07-02T03:05:38;99950.13;;;15.69;100.00
30421;BME280;17218;54.070;10.012;2023-07-02T03:08:05;99952.94;;;15.64;100.00
30421;BME280;17218;54.070;10.012;2023-07-02T03:10:31;99957.31;;;15.64;100.00
30421;BME280;17218;54.070;10.012;2023-07-02T03:12:58;99948.53;;;15.66;100.00
30421;BME280;17218;54.070;10.012;2023-07-02T03:15:24;99950.34;;;15.64;100.00
30421;BME280;17218;54.070;10.012;2023-07-02T03:17:50;99945.19;;;15.62;100.00
30421;BME280;17218;54.070;10.012;2023-07-02T03:20:18;99952.09;;;15.64;100.00
30421;BME280;17218;54.070;10.012;2023-07-02T03:22:45;99959.72;;;15.68;100.00
30421;BME280;17218;54.070;10.012;2023-07-02T03:25:11;99950.44;;;15.61;100.00
30421;BME280;17218;54.070;10.012;2023-07-02T03:27:38;99950.72;;;15.55;100.00
30421;BME280;17218;54.070;10.012;2023-07-02T03:30:06;99959.19;;;15.60;100.00
30421;BME280;17218;54.070;10.012;2023-07-02T03:32:32;99952.41;;;15.56;100.00
30421;BME280;17218;54.070;10.012;2023-07-02T03:34:59;99956.97;;;15.50;100.00
30421;BME280;17218;54.070;10.012;2023-07-02T03:37:27;99957.94;;;15.48;100.00
30421;BME280;17218;54.070;10.012;2023-07-02T03:39:54;99967.72;;;15.43;100.00
30421;BME280;17218;54.070;10.012;2023-07-02T03:42:20;99955.69;;;15.38;100.00
30421;BME280;17218;54.070;10.012;2023-07-02T03:44:47;99960.81;;;15.42;100.00
30421;BME280;17218;54.070;10.012;2023-07-02T03:47:13;99964.28;;;15.42;100.00
30421;BME280;17218;54.070;10.012;2023-07-02T03:49:41;99961.53;;;15.45;100.00
30421;BME280;17218;54.070;10.012;2023-07-02T03:52:08;99952.84;;;15.45;100.00
30421;BME280;17218;54.070;10.012;2023-07-02T03:54:36;99944.50;;;15.36;100.00
30421;BME280;17218;54.070;10.012;2023-07-02T03:57:02;99954.94;;;15.36;100.00
30421;BME280;17218;54.070;10.012;2023-07-02T03:59:29;99955.66;;;15.40;100.00
30421;BME280;17218;54.070;10.012;2023-07-02T04:01:55;99959.09;;;15.41;100.00
30421;BME280;17218;54.070;10.012;2023-07-02T04:04:22;99957.34;;;15.41;100.00
30421;BME280;17218;54.070;10.012;2023-07-02T04:06:48;99950.59;;;15.35;100.00
30421;BME280;17218;54.070;10.012;2023-07-02T04:09:15;99967.03;;;15.37;100.00
30421;BME280;17218;54.070;10.012;2023-07-02T04:11:44;99965.53;;;15.32;100.00
30421;BME280;17218;54.070;10.012;2023-07-02T04:14:11;99976.53;;;15.40;100.00
30421;BME280;17218;54.070;10.012;2023-07-02T04:16:38;99971.34;;;15.38;100.00
30421;BME280;17218;54.070;10.012;2023-07-02T04:19:04;99973.06;;;15.40;100.00
30421;BME280;17218;54.070;10.012;2023-07-02T04:21:30;99971.03;;;15.46;100.00
30421;BME280;17218;54.070;10.012;2023-07-02T04:23:57;99972.63;;;15.50;100.00
30421;BME280;17218;54.070;10.012;2023-07-02T04:26:24;99971.75;;;15.50;100.00
30421;BME280;17218;54.070;10.012;2023-07-02T04:28:53;99975.31;;;15.49;100.00
30421;BME280;17218;54.070;10.012;2023-07-02T04:31:20;99979.44;;;15.55;100.00
30421;BME280;17218;54.070;10.012;2023-07-02T04:33:47;99982.09;;;15.53;100.00
30421;BME280;17218;54.070;10.012;2023-07-02T04:36:14;99973.47;;;15.51;100.00
30421;BME280;17218;54.070;10.012;2023-07-02T04:38:40;99979.88;;;15.65;100.00
30421;BME280;17218;54.070;10.012;2023-07-02T04:41:07;99983.13;;;15.71;100.00
30421;BME280;17218;54.070;10.012;2023-07-02T04:43:35;99981.47;;;15.69;100.00
30421;BME280;17218;54.070;10.012;2023-07-02T04:46:03;99973.38;;;15.75;100.00
30421;BME280;17218;54.070;10.012;2023-07-02T04:48:32;99977.09;;;15.69;100.00
30421;BME280;17218;54.070;10.012;2023-07-02T04:50:59;99970.16;;;15.68;100.00
30421;BME280;17218;54.070;10.012;2023-07-02T04:53:25;99983.56;;;15.60;100.00
30421;BME280;17218;54.070;10.012;2023-07-02T04:55:51;99969.78;;;15.57;100.00
30421;BME280;17218;54.070;10.012;2023-07-02T04:58:18;99988.88;;;15.57;100.00
30421;BME280;17218;54.070;10.012;2023-07-02T05:00:44;99990.66;;;15.57;100.00
30421;BME280;17218;54.070;10.012;2023-07-02T05:03:12;99982.69;;;15.60;100.00
30421;BME280;17218;54.070;10.012;2023-07-02T05:05:39;99973.47;;;15.51;100.00
30421;BME280;17218;54.070;10.012;2023-07-02T05:08:06;99976.09;;;15.51;100.00
30421;BME280;17218;54.070;10.012;2023-07-02T05:10:32;99975.47;;;15.44;100.00
30421;BME280;17218;54.070;10.012;2023-07-02T05:12:58;99987.06;;;15.59;100.00
30421;BME280;17218;54.070;10.012;2023-07-02T05:15:25;99978.91;;;15.67;100.00
30421;BME280;17218;54.070;10.012;2023-07-02T05:17:52;99975.28;;;15.71;100.00
30421;BME280;17218;54.070;10.012;2023-07-02T05:20:20;99984.38;;;15.61;100.00
30421;BME280;17218;54.070;10.012;2023-07-02T05:22:46;99975.00;;;15.34;100.00
30421;BME280;17218;54.070;10.012;2023-07-02T05:25:13;99974.34;;;15.29;100.00
30421;BME280;17218;54.070;10.012;2023-07-02T05:27:39;99981.38;;;15.27;100.00
30421;BME280;17218;54.070;10.012;2023-07-02T05:30:07;99974.22;;;15.32;100.00
30421;BME280;17218;54.070;10.012;2023-07-02T05:32:34;99966.19;;;15.37;100.00
30421;BME280;17218;54.070;10.012;2023-07-02T05:35:00;99970.88;;;15.51;100.00
30421;BME280;17218;54.070;10.012;2023-07-02T05:37:28;99975.44;;;15.46;100.00
30421;BME280;17218;54.070;10.012;2023-07-02T05:39:55;99975.09;;;15.54;100.00
30421;BME280;17218;54.070;10.012;2023-07-02T05:42:21;99984.38;;;15.61;100.00
30421;BME280;17218;54.070;10.012;2023-07-02T05:44:48;99975.75;;;15.59;100.00
30421;BME280;17218;54.070;10.012;2023-07-02T05:47:14;99996.47;;;15.64;100.00
30421;BME280;17218;54.070;10.012;2023-07-02T05:49:41;100010.13;;;15.70;100.00
30421;BME280;17218;54.070;10.012;2023-07-02T05:52:08;99991.75;;;15.73;100.00
30421;BME280;17218;54.070;10.012;2023-07-02T05:54:39;99990.81;;;15.74;100.00
30421;BME280;17218;54.070;10.012;2023-07-02T05:57:05;99988.91;;;15.78;100.00
30421;BME280;17218;54.070;10.012;2023-07-02T05:59:31;99974.13;;;15.79;100.00
30421;BME280;17218;54.070;10.012;2023-07-02T06:01:58;99973.13;;;15.81;100.00
30421;BME280;17218;54.070;10.012;2023-07-02T06:04:24;99973.19;;;15.80;100.00
30421;BME280;17218;54.070;10.012;2023-07-02T06:06:51;99992.47;;;15.77;100.00
30421;BME280;17218;54.070;10.012;2023-07-02T06:09:17;99985.59;;;15.74;100.00
30421;BME280;17218;54.070;10.012;2023-07-02T06:11:45;99985.53;;;15.76;100.00
30421;BME280;17218;54.070;10.012;2023-07-02T06:14:12;99968.28;;;15.72;100.00
30421;BME280;17218;54.070;10.012;2023-07-02T06:16:38;99978.31;;;15.83;100.00
30421;BME280;17218;54.070;10.012;2023-07-02T06:19:04;99968.44;;;15.90;100.00
30421;BME280;17218;54.070;10.012;2023-07-02T06:21:31;99974.31;;;15.95;100.00
30421;BME280;17218;54.070;10.012;2023-07-02T06:23:57;99965.63;;;15.94;100.00
30421;BME280;17218;54.070;10.012;2023-07-02T06:26:24;99963.56;;;16.03;100.00
30421;BME280;17218;54.070;10.012;2023-07-02T06:28:52;99965.81;;;16.12;100.00
30421;BME280;17218;54.070;10.012;2023-07-02T06:31:19;99970.22;;;16.31;100.00
30421;BME280;17218;54.070;10.012;2023-07-02T06:33:45;99964.38;;;16.45;100.00
30421;BME280;17218;54.070;10.012;2023-07-02T06:36:12;99953.66;;;16.51;100.00
30421;BME280;17218;54.070;10.012;2023-07-02T06:38:39;99955.41;;;16.51;100.00
30421;BME280;17218;54.070;10.012;2023-07-02T06:41:06;99964.78;;;16.36;100.00
30421;BME280;17218;54.070;10.012;2023-07-02T06:43:32;99946.41;;;16.37;100.00
30421;BME280;17218;54.070;10.012;2023-07-02T06:46:00;99964.44;;;16.43;100.00
30421;BME280;17218;54.070;10.012;2023-07-02T06:48:26;99952.50;;;16.38;100.00
30421;BME280;17218;54.070;10.012;2023-07-02T06:50:53;99967.19;;;16.40;100.00
30421;BME280;17218;54.070;10.012;2023-07-02T06:53:19;99971.09;;;16.51;100.00
30421;BME280;17218;54.070;10.012;2023-07-02T06:55:46;99982.34;;;16.53;100.00
30421;BME280;17218;54.070;10.012;2023-07-02T06:58:12;99977.53;;;16.63;100.00
30421;BME280;17218;54.070;10.012;2023-07-02T07:00:39;99975.84;;;16.81;100.00
30421;BME280;17218;54.070;10.012;2023-07-02T07:03:06;99984.06;;;16.92;100.00
30421;BME280;17218;54.070;10.012;2023-07-02T07:05:33;99982.78;;;17.01;100.00
30421;BME280;17218;54.070;10.012;2023-07-02T07:08:00;99983.72;;;17.20;100.00
30421;BME280;17218;54.070;10.012;2023-07-02T07:10:27;99979.03;;;17.26;100.00
30421;BME280;17218;54.070;10.012;2023-07-02T07:12:53;99993.81;;;17.27;100.00
30421;BME280;17218;54.070;10.012;2023-07-02T07:15:20;99969.97;;;17.34;100.00
30421;BME280;17218;54.070;10.012;2023-07-02T07:17:46;99968.84;;;17.39;100.00
30421;BME280;17218;54.070;10.012;2023-07-02T07:20:14;100001.56;;;17.48;100.00
30421;BME280;17218;54.070;10.012;2023-07-02T07:22:40;100007.56;;;17.13;100.00
30421;BME280;17218;54.070;10.012;2023-07-02T07:25:08;100016.56;;;16.87;100.00
30421;BME280;17218;54.070;10.012;2023-07-02T07:27:35;100025.78;;;16.55;100.00
30421;BME280;17218;54.070;10.012;2023-07-02T07:30:01;100039.31;;;16.24;100.00
30421;BME280;17218;54.070;10.012;2023-07-02T07:32:28;100021.97;;;16.23;100.00
30421;BME280;17218;54.070;10.012;2023-07-02T07:34:54;100025.81;;;16.14;100.00
30421;BME280;17218;54.070;10.012;2023-07-02T07:37:23;100046.66;;;15.93;100.00
30421;BME280;17218;54.070;10.012;2023-07-02T07:39:50;100052.72;;;15.93;100.00
30421;BME280;17218;54.070;10.012;2023-07-02T07:42:16;100042.28;;;15.93;100.00
30421;BME280;17218;54.070;10.012;2023-07-02T07:44:44;100039.69;;;15.93;100.00
30421;BME280;17218;54.070;10.012;2023-07-02T07:47:11;100041.28;;;15.96;100.00
30421;BME280;17218;54.070;10.012;2023-07-02T07:49:37;100034.63;;;15.89;100.00
30421;BME280;17218;54.070;10.012;2023-07-02T07:52:04;100030.03;;;15.95;100.00
30421;BME280;17218;54.070;10.012;2023-07-02T07:54:33;100036.66;;;16.04;100.00
30421;BME280;17218;54.070;10.012;2023-07-02T07:57:00;100038.81;;;16.15;100.00
30421;BME280;17218;54.070;10.012;2023-07-02T07:59:27;100049.28;;;16.36;100.00
30421;BME280;17218;54.070;10.012;2023-07-02T08:01:53;100044.75;;;16.40;100.00
30421;BME280;17218;54.070;10.012;2023-07-02T08:04:20;100036.47;;;16.51;100.00
30421;BME280;17218;54.070;10.012;2023-07-02T08:06:47;100040.16;;;16.66;100.00
30421;BME280;17218;54.070;10.012;2023-07-02T08:09:13;100026.16;;;16.67;100.00
30421;BME280;17218;54.070;10.012;2023-07-02T08:11:41;100032.63;;;16.79;100.00
30421;BME280;17218;54.070;10.012;2023-07-02T08:14:07;100045.34;;;16.87;100.00
30421;BME280;17218;54.070;10.012;2023-07-02T08:16:34;100040.09;;;16.67;100.00
30421;BME280;17218;54.070;10.012;2023-07-02T08:19:01;100039.72;;;16.56;100.00
30421;BME280;17218;54.070;10.012;2023-07-02T08:21:28;100054.34;;;16.39;100.00
30421;BME280;17218;54.070;10.012;2023-07-02T08:23:54;100060.13;;;16.27;100.00
30421;BME280;17218;54.070;10.012;2023-07-02T08:26:22;100059.94;;;16.09;100.00
30421;BME280;17218;54.070;10.012;2023-07-02T08:28:50;100078.72;;;16.19;100.00
30421;BME280;17218;54.070;10.012;2023-07-02T08:31:17;100071.09;;;16.14;100.00
30421;BME280;17218;54.070;10.012;2023-07-02T08:33:43;100078.38;;;16.06;100.00
30421;BME280;17218;54.070;10.012;2023-07-02T08:36:10;100076.91;;;15.98;100.00
30421;BME280;17218;54.070;10.012;2023-07-02T08:38:38;100073.28;;;16.03;100.00
30421;BME280;17218;54.070;10.012;2023-07-02T08:41:07;100075.47;;;16.14;100.00
30421;BME280;17218;54.070;10.012;2023-07-02T08:43:34;100070.69;;;16.24;100.00
30421;BME280;17218;54.070;10.012;2023-07-02T08:46:03;100069.25;;;16.37;100.00
30421;BME280;17218;54.070;10.012;2023-07-02T08:48:29;100059.44;;;16.42;100.00
30421;BME280;17218;54.070;10.012;2023-07-02T08:50:56;100067.03;;;16.69;100.00
30421;BME280;17218;54.070;10.012;2023-07-02T08:53:22;100062.28;;;16.78;100.00
30421;BME280;17218;54.070;10.012;2023-07-02T08:55:54;100065.56;;;16.83;100.00
30421;BME280;17218;54.070;10.012;2023-07-02T08:58:21;100064.84;;;16.79;100.00
30421;BME280;17218;54.070;10.012;2023-07-02T09:01:07;100072.00;;;16.95;100.00
30421;BME280;17218;54.070;10.012;2023-07-02T09:03:35;100074.09;;;16.87;100.00
30421;BME280;17218;54.070;10.012;2023-07-02T09:06:04;100072.09;;;16.93;100.00
30421;BME280;17218;54.070;10.012;2023-07-02T09:08:30;100064.94;;;16.97;100.00
30421;BME280;17218;54.070;10.012;2023-07-02T09:11:06;100072.25;;;17.10;100.00
30421;BME280;17218;54.070;10.012;2023-07-02T09:13:42;100073.69;;;16.96;100.00
30421;BME280;17218;54.070;10.012;2023-07-02T09:16:20;100082.91;;;17.05;100.00
30421;BME280;17218;54.070;10.012;2023-07-02T09:18:58;100077.97;;;17.18;100.00
30421;BME280;17218;54.070;10.012;2023-07-02T09:21:25;100075.53;;;17.34;100.00
30421;BME280;17218;54.070;10.012;2023-07-02T09:23:53;100082.53;;;17.34;100.00
30421;BME280;17218;54.070;10.012;2023-07-02T09:26:20;100056.44;;;17.32;100.00
30421;BME280;17218;54.070;10.012;2023-07-02T09:28:47;100080.34;;;17.44;100.00
30421;BME280;17218;54.070;10.012;2023-07-02T09:31:14;100068.63;;;17.70;100.00
30421;BME280;17218;54.070;10.012;2023-07-02T09:33:42;100066.03;;;17.88;100.00
30421;BME280;17218;54.070;10.012;2023-07-02T09:36:08;100073.81;;;17.90;100.00
30421;BME280;17218;54.070;10.012;2023-07-02T09:38:35;100078.59;;;17.99;100.00
30421;BME280;17218;54.070;10.012;2023-07-02T09:41:02;100079.69;;;18.12;100.00
30421;BME280;17218;54.070;10.012;2023-07-02T09:43:30;100078.34;;;18.23;100.00
30421;BME280;17218;54.070;10.012;2023-07-02T09:45:57;100083.16;;;18.13;100.00
30421;BME280;17218;54.070;10.012;2023-07-02T09:48:27;100083.03;;;18.16;100.00
30421;BME280;17218;54.070;10.012;2023-07-02T09:50:58;100124.84;;;18.00;100.00
30421;BME280;17218;54.070;10.012;2023-07-02T09:53:27;100115.00;;;17.49;100.00
30421;BME280;17218;54.070;10.012;2023-07-02T09:55:53;100113.72;;;17.19;100.00
30421;BME280;17218;54.070;10.012;2023-07-02T09:58:20;100102.16;;;16.83;100.00
30421;BME280;17218;54.070;10.012;2023-07-02T10:00:46;100103.97;;;16.83;100.00
30421;BME280;17218;54.070;10.012;2023-07-02T10:03:13;100100.78;;;16.95;100.00
30421;BME280;17218;54.070;10.012;2023-07-02T10:05:41;100112.53;;;17.26;100.00
30421;BME280;17218;54.070;10.012;2023-07-02T10:08:14;100091.63;;;17.44;100.00
30421;BME280;17218;54.070;10.012;2023-07-02T10:10:43;100105.44;;;17.67;100.00
30421;BME280;17218;54.070;10.012;2023-07-02T10:13:09;100095.09;;;18.01;100.00
30421;BME280;17218;54.070;10.012;2023-07-02T10:15:36;100086.66;;;18.31;100.00
30421;BME280;17218;54.070;10.012;2023-07-02T10:18:05;100085.97;;;18.28;100.00
30421;BME280;17218;54.070;10.012;2023-07-02T10:20:32;100112.50;;;18.39;100.00
30421;BME280;17218;54.070;10.012;2023-07-02T10:23:01;100104.28;;;18.10;100.00
30421;BME280;17218;54.070;10.012;2023-07-02T10:25:30;100126.56;;;17.82;100.00
30421;BME280;17218;54.070;10.012;2023-07-02T10:27:57;100137.88;;;17.45;100.00
30421;BME280;17218;54.070;10.012;2023-07-02T10:30:31;100125.97;;;17.38;100.00
30421;BME280;17218;54.070;10.012;2023-07-02T10:33:11;100138.25;;;17.55;100.00
30421;BME280;17218;54.070;10.012;2023-07-02T10:35:40;100139.91;;;17.77;100.00
30421;BME280;17218;54.070;10.012;2023-07-02T10:38:13;100135.59;;;17.94;100.00
30421;BME280;17218;54.070;10.012;2023-07-02T10:40:41;100140.41;;;18.03;100.00
30421;BME280;17218;54.070;10.012;2023-07-02T10:43:08;100127.91;;;17.91;100.00
30421;BME280;17218;54.070;10.012;2023-07-02T10:45:35;100143.44;;;18.13;100.00
30421;BME280;17218;54.070;10.012;2023-07-02T10:48:02;100128.38;;;18.36;100.00
30421;BME280;17218;54.070;10.012;2023-07-02T10:50:30;100129.88;;;18.76;100.00
30421;BME280;17218;54.070;10.012;2023-07-02T10:52:57;100153.81;;;18.87;100.00
30421;BME280;17218;54.070;10.012;2023-07-02T10:55:26;100176.50;;;18.53;100.00
30421;BME280;17218;54.070;10.012;2023-07-02T10:58:03;100180.81;;;17.80;100.00
30421;BME280;17218;54.070;10.012;2023-07-02T11:00:30;100178.84;;;17.66;100.00
30421;BME280;17218;54.070;10.012;2023-07-02T11:02:56;100179.03;;;17.80;100.00
30421;BME280;17218;54.070;10.012;2023-07-02T11:05:23;100172.16;;;17.97;100.00
30421;BME280;17218;54.070;10.012;2023-07-02T11:07:49;100159.88;;;18.17;100.00
30421;BME280;17218;54.070;10.012;2023-07-02T11:10:22;100160.22;;;18.46;100.00
30421;BME280;17218;54.070;10.012;2023-07-02T11:12:51;100170.50;;;18.51;100.00
30421;BME280;17218;54.070;10.012;2023-07-02T11:15:18;100172.19;;;18.52;100.00
30421;BME280;17218;54.070;10.012;2023-07-02T11:17:45;100157.06;;;18.39;100.00
30421;BME280;17218;54.070;10.012;2023-07-02T11:20:12;100159.06;;;18.52;100.00
30421;BME280;17218;54.070;10.012;2023-07-02T11:22:40;100153.59;;;18.74;100.00
30421;BME280;17218;54.070;10.012;2023-07-02T11:25:11;100157.53;;;18.99;100.00
30421;BME280;17218;54.070;10.012;2023-07-02T11:27:38;100158.75;;;19.27;100.00
30421;BME280;17218;54.070;10.012;2023-07-02T11:30:07;100150.28;;;19.22;100.00
30421;BME280;17218;54.070;10.012;2023-07-02T11:32:46;100162.28;;;18.92;100.00
30421;BME280;17218;54.070;10.012;2023-07-02T11:35:14;100155.81;;;18.82;100.00
30421;BME280;17218;54.070;10.012;2023-07-02T11:37:40;100155.66;;;19.03;100.00
30421;BME280;17218;54.070;10.012;2023-07-02T11:40:08;100162.84;;;19.33;100.00
30421;BME280;17218;54.070;10.012;2023-07-02T11:42:34;100171.66;;;19.32;100.00
30421;BME280;17218;54.070;10.012;2023-07-02T11:45:01;100165.25;;;19.20;100.00
30421;BME280;17218;54.070;10.012;2023-07-02T11:47:29;100181.97;;;18.83;100.00
30421;BME280;17218;54.070;10.012;2023-07-02T11:49:55;100182.19;;;19.14;100.00
30421;BME280;17218;54.070;10.012;2023-07-02T11:52:22;100177.19;;;19.76;100.00
30421;BME280;17218;54.070;10.012;2023-07-02T11:54:48;100173.88;;;20.21;100.00
30421;BME280;17218;54.070;10.012;2023-07-02T11:57:14;100182.28;;;19.95;100.00
30421;BME280;17218;54.070;10.012;2023-07-02T11:59:41;100174.19;;;20.31;100.00
30421;BME280;17218;54.070;10.012;2023-07-02T12:02:07;100179.34;;;20.48;100.00
30421;BME280;17218;54.070;10.012;2023-07-02T12:04:35;100190.44;;;20.54;100.00
30421;BME280;17218;54.070;10.012;2023-07-02T12:07:02;100181.72;;;20.37;100.00
30421;BME280;17218;54.070;10.012;2023-07-02T12:09:29;100199.03;;;20.25;100.00
30421;BME280;17218;54.070;10.012;2023-07-02T12:11:56;100195.06;;;20.01;100.00
30421;BME280;17218;54.070;10.012;2023-07-02T12:14:22;100213.88;;;19.94;100.00
30421;BME280;17218;54.070;10.012;2023-07-02T12:16:49;100199.31;;;20.20;100.00
30421;BME280;17218;54.070;10.012;2023-07-02T12:19:15;100217.97;;;20.62;100.00
30421;BME280;17218;54.070;10.012;2023-07-02T12:21:43;100196.31;;;20.88;100.00
30421;BME280;17218;54.070;10.012;2023-07-02T12:24:09;100196.84;;;20.95;100.00
30421;BME280;17218;54.070;10.012;2023-07-02T12:26:36;100197.41;;;21.00;100.00
30421;BME280;17218;54.070;10.012;2023-07-02T12:29:03;100194.97;;;21.41;100.00
30421;BME280;17218;54.070;10.012;2023-07-02T12:31:30;100206.75;;;21.35;100.00
30421;BME280;17218;54.070;10.012;2023-07-02T12:33:56;100209.28;;;21.07;100.00
30421;BME280;17218;54.070;10.012;2023-07-02T12:36:23;100213.78;;;20.44;100.00